This is the latest recevied weather packets stored in our database for station/object KC8JWT. If no packets are shown the sender has not sent any weather packets the latest 1 day(s).
| Time | Temp. | Humidity | Pressure | Rain* | Wind** | Luminosity | Snow |
|---|---|---|---|---|---|---|---|
| 1778033409 | 18.89° C | 73% | 1008.5 hPa | 0 mm | - | 0 W/m² | - |
| 1778032501 | 18.89° C | 70% | 1008.3 hPa | 0 mm | - | 0 W/m² | - |
| 1778031895 | 19.44° C | 67% | 1008 hPa | 0 mm | - | 0 W/m² | - |
| 1778031591 | 19.44° C | 66% | 1008.4 hPa | 0 mm | - | 0 W/m² | - |
| 1778031289 | 20° C | 65% | 1008.2 hPa | 0 mm | - | 0 W/m² | - |
| 1778030985 | 20° C | 65% | 1008.1 hPa | 0 mm | - | 0 W/m² | - |
| 1778030681 | 20° C | 64% | 1007.9 hPa | 0 mm | - | 0 W/m² | - |
| 1778030378 | 20° C | 64% | 1008.1 hPa | 0 mm | - | 0 W/m² | - |
| 1778030076 | 20° C | 64% | 1007.9 hPa | 0 mm | - | 0 W/m² | - |
| 1778029472 | 20.56° C | 62% | 1007.8 hPa | 0 mm | - | 0 W/m² | - |
| 1778029167 | 20.56° C | 62% | 1007.9 hPa | 0 mm | - | 0 W/m² | - |
| 1778028865 | 20.56° C | 63% | 1007.9 hPa | 0 mm | - | 0 W/m² | - |
| 1778028560 | 20.56° C | 63% | 1008 hPa | 0 mm | - | 0 W/m² | - |
| 1778028259 | 20.56° C | 62% | 1008 hPa | 0 mm | - | 0 W/m² | - |
| 1778026739 | 21.11° C | 62% | 1008.1 hPa | 0 mm | - | 1 W/m² | - |
| 1778026133 | 21.11° C | 62% | 1008.4 hPa | 0 mm | - | 2 W/m² | - |
| 1778024620 | 21.67° C | 60% | 1008.2 hPa | 0 mm | - | 13 W/m² | - |
| 1778022502 | 22.22° C | 59% | 1008.5 hPa | 0 mm | - | 25 W/m² | - |
| 1778021895 | 22.22° C | 60% | 1008.3 hPa | 0 mm | - | 34 W/m² | - |
| 1778020075 | 22.78° C | 57% | 1008.3 hPa | 0 mm | - | 69 W/m² | - |
| 1778017955 | 23.33° C | 56% | 1008.4 hPa | 0 mm | - | 163 W/m² | - |
| 1778016440 | 23.89° C | 55% | 1008.7 hPa | 0 mm | - | 277 W/m² | - |
| 1778015228 | 23.33° C | 55% | 1008.9 hPa | 0 mm | - | 181 W/m² | - |
| 1778014925 | 23.89° C | 55% | 1009.2 hPa | 0 mm | - | 214 W/m² | - |
* Rain latest hour (hover to see other rain measurements)
** Current wind speed in m/s (hover to see current wind gust speed)